Terminal Aerodrome Forecast
Issued by NWS Grand Rapids, MI

Home | Current Version | Previous Version | Text Only | Print | Product List | Glossary On
Versions: 1 2 3 4 5 6 7 8 9 10 11 12 13 14 15 16
000
FTUS43 KGRR 021545 AAA
TAFGRR
TAF AMD
KGRR 021545Z 0216/0312 23018G24KT P6SM SCT021 SCT220
     FM021800 22025G35KT P6SM SCT060 SCT150
     FM030200 27030G45KT 1/2SM +TSRA OVC035CB
     FM030300 30015KT 2SM -RA BKN035
     FM030400 30007KT 4SM BR VCSH BKN050=

USA.gov is the U.S. government's official web portal to all federal, state and local government web resources and services.